Time;durP1;ratioP1;P1;durP2;ratioP2;P2;SDS_P1;SDS_P2;PMS_P1;PMS_P2;Temp;Humidity;BMP_temperature;BMP_pressure;BME280_temperature;BME280_humidity;BME280_pressure;Samples;Min_cycle;Max_cycle;Signal;HPM_P1;HPM_P2
2022/08/29 00:01:09;;;;;;;56.65;32.03;;;;;;;23.23;39.64;99158.75;5075130;28;20527;-68
2022/08/29 00:03:36;;;;;;;56.58;31.08;;;;;;;23.24;39.66;99159.59;5074773;28;20064;-68
2022/08/29 00:06:06;;;;;;;61.58;31.42;;;;;;;23.18;39.63;99145.00;5075100;28;20160;-68
2022/08/29 00:08:33;;;;;;;60.80;32.50;;;;;;;23.18;39.59;99153.53;5074812;28;20045;-68
2022/08/29 00:11:00;;;;;;;54.03;31.58;;;;;;;23.14;39.79;99147.09;5073551;28;20095;-68
2022/08/29 00:13:26;;;;;;;58.85;32.97;;;;;;;23.14;39.80;99144.28;5074096;28;20048;-68
2022/08/29 00:15:54;;;;;;;63.97;32.00;;;;;;;23.12;39.81;99138.22;5074962;28;20052;-67
2022/08/29 00:18:20;;;;;;;52.85;31.67;;;;;;;23.10;39.98;99135.00;5074685;28;20052;-67
2022/08/29 00:20:47;;;;;;;66.97;33.65;;;;;;;23.08;40.12;99136.66;5074564;28;20094;-67
2022/08/29 00:23:15;;;;;;;56.03;32.78;;;;;;;23.04;40.02;99122.50;5074283;28;20576;-67
2022/08/29 00:25:42;;;;;;;63.08;33.55;;;;;;;23.05;40.12;99117.63;5074974;28;20056;-67
2022/08/29 00:28:09;;;;;;;62.63;30.95;;;;;;;23.03;40.20;99120.09;5074500;28;20055;-67
2022/08/29 00:30:39;;;;;;;63.03;32.78;;;;;;;23.07;40.26;99113.13;5074076;28;20060;-67
2022/08/29 00:33:07;;;;;;;68.93;36.92;;;;;;;23.06;40.31;99111.53;5074158;28;20072;-67
2022/08/29 00:35:38;;;;;;;80.70;34.47;;;;;;;23.05;40.37;99106.28;5074498;28;20091;-67
2022/08/29 00:38:10;;;;;;;77.18;33.33;;;;;;;23.04;40.37;99102.63;5074730;28;20102;-67
2022/08/29 00:40:46;;;;;;;65.90;33.83;;;;;;;23.04;40.35;99102.63;5074232;28;20143;-68
2022/08/29 00:43:30;;;;;;;59.63;32.25;;;;;;;23.01;40.27;99100.66;5074685;28;20083;-68
2022/08/29 00:46:04;;;;;;;;;;;;;;;22.87;40.36;99095.19;5074450;28;20048;-67
2022/08/29 00:48:35;;;;;;;65.63;32.03;;;;;;;22.93;40.37;99093.50;5074124;28;19924;-68
2022/08/29 00:51:10;;;;;;;61.85;31.77;;;;;;;22.92;40.58;99086.19;5074157;28;20052;-67
2022/08/29 00:53:42;;;;;;;69.18;33.72;;;;;;;22.90;40.28;99082.19;5073491;28;20090;-67
2022/08/29 00:56:12;;;;;;;65.82;33.08;;;;;;;22.88;40.30;99079.78;5073995;28;20048;-68
2022/08/29 00:58:44;;;;;;;70.03;34.33;;;;;;;22.89;40.27;99072.06;5073752;28;20094;-67
2022/08/29 01:01:11;;;;;;;67.35;35.30;;;;;;;22.85;40.30;99063.59;5073663;28;20056;-67
2022/08/29 01:03:40;;;;;;;74.10;35.28;;;;;;;22.82;40.35;99064.44;5073317;28;20049;-68
2022/08/29 01:06:10;;;;;;;67.85;35.90;;;;;;;22.80;40.51;99055.56;5073554;28;20052;-67
2022/08/29 01:08:37;;;;;;;64.82;34.40;;;;;;;22.79;40.60;99053.97;5073563;28;20102;-67
2022/08/29 01:13:53;;;;;;;72.28;36.45;;;;;;;22.75;40.40;99041.88;5073556;28;20052;-72
2022/08/29 01:16:22;;;;;;;70.85;37.20;;;;;;;22.70;40.37;99033.81;5073283;28;20052;-72
2022/08/29 01:18:54;;;;;;;74.45;35.33;;;;;;;22.72;40.14;99037.06;5072269;28;20136;-72
2022/08/29 01:21:44;;;;;;;65.07;37.80;;;;;;;22.71;40.39;99029.75;5073509;28;20106;-72
2022/08/29 01:24:25;;;;;;;;;;;;;;;22.57;40.65;99027.13;5073671;28;20071;-72
2022/08/29 01:26:52;;;;;;;68.80;38.83;;;;;;;22.60;40.55;99029.13;5073289;28;19924;-72
2022/08/29 01:29:19;;;;;;;74.47;41.30;;;;;;;22.64;40.55;99023.38;5072817;28;20118;-72
2022/08/29 01:31:48;;;;;;;79.63;39.72;;;;;;;22.65;40.47;99022.94;5073087;28;20466;-73
2022/08/29 01:34:24;;;;;;;77.45;38.97;;;;;;;22.68;40.47;99027.78;5073195;28;20136;-72
2022/08/29 01:37:06;;;;;;;69.80;38.47;;;;;;;22.73;40.20;99018.78;5073248;28;20057;-73
2022/08/29 01:39:35;;;;;;;74.72;39.67;;;;;;;22.70;40.22;99016.81;5073086;28;20468;-72
2022/08/29 01:42:09;;;;;;;82.32;40.92;;;;;;;22.70;40.25;99007.50;5073177;28;20048;-72
2022/08/29 01:44:38;;;;;;;68.00;40.05;;;;;;;22.68;40.27;99004.31;5071511;28;20044;-71
2022/08/29 01:47:07;;;;;;;74.80;38.55;;;;;;;22.64;40.35;99004.34;5072903;28;20052;-72
2022/08/29 01:49:35;;;;;;;73.18;40.63;;;;;;;22.63;40.55;98999.91;5073321;28;20044;-73
2022/08/29 01:52:07;;;;;;;79.72;39.22;;;;;;;22.60;40.51;98989.41;5071306;28;20044;-71
2022/08/29 01:54:33;;;;;;;94.32;40.53;;;;;;;22.57;40.53;98990.28;5072894;28;20072;-71
2022/08/29 01:57:01;;;;;;;72.05;42.08;;;;;;;22.53;40.67;99000.06;5073161;28;20048;-72
2022/08/29 01:59:29;;;;;;;75.20;39.22;;;;;;;22.52;40.62;98999.25;5054435;28;20519;-72
2022/08/29 02:02:16;;;;;;;70.65;37.22;;;;;;;22.50;40.63;98996.03;5071901;28;20056;-71
2022/08/29 02:04:46;;;;;;;81.80;41.03;;;;;;;22.45;40.71;98998.50;5072788;28;20052;-73
2022/08/29 02:07:16;;;;;;;70.13;38.28;;;;;;;22.41;40.89;98986.41;5073162;28;20053;-73
2022/08/29 02:09:43;;;;;;;80.68;41.33;;;;;;;22.37;41.03;98977.13;5072394;28;20048;-73
2022/08/29 02:12:12;;;;;;;77.18;39.88;;;;;;;22.34;40.91;98981.63;5070979;28;20048;-73
2022/08/29 02:14:40;;;;;;;74.03;40.00;;;;;;;22.34;41.02;98990.13;5071939;28;20048;-72
2022/08/29 02:17:07;;;;;;;70.28;38.33;;;;;;;22.27;41.24;98981.75;5072730;28;20402;-72
2022/08/29 02:19:36;;;;;;;74.90;38.83;;;;;;;22.28;41.23;98977.66;5072307;28;20048;-72
2022/08/29 02:22:04;;;;;;;72.57;40.30;;;;;;;22.29;41.20;98976.44;5072770;28;20155;-73
2022/08/29 02:24:31;;;;;;;71.20;36.78;;;;;;;22.33;41.27;98982.06;5072729;28;20048;-65
2022/08/29 02:26:59;;;;;;;72.35;38.78;;;;;;;22.32;41.13;98978.41;5073188;28;20094;-64
2022/08/29 02:29:26;;;;;;;70.60;37.80;;;;;;;22.31;40.97;98970.34;5072179;28;20126;-64
2022/08/29 02:32:08;;;;;;;68.07;37.05;;;;;;;22.26;41.13;98963.09;5072483;28;20060;-63
2022/08/29 02:34:36;;;;;;;70.15;35.47;;;;;;;22.24;41.21;98954.25;5072676;28;20391;-63
2022/08/29 02:37:04;;;;;;;65.40;35.75;;;;;;;22.24;41.12;98942.91;5072241;28;20052;-67
2022/08/29 02:39:32;;;;;;;65.95;34.60;;;;;;;22.26;41.23;98940.44;5072535;28;20495;-67
2022/08/29 02:41:58;;;;;;;63.83;32.75;;;;;;;22.34;40.83;98933.44;5072463;28;20048;-67
2022/08/29 02:44:25;;;;;;;66.25;32.67;;;;;;;22.37;40.71;98955.28;5072410;28;20106;-65
2022/08/29 02:46:52;;;;;;;62.33;31.40;;;;;;;22.35;40.56;98959.78;5072165;28;20519;-64
2022/08/29 02:49:20;;;;;;;54.35;29.95;;;;;;;22.31;40.69;98948.47;5072056;28;20072;-65
2022/08/29 02:51:47;;;;;;;53.83;28.63;;;;;;;22.37;40.50;98954.47;5072353;28;20071;-64
2022/08/29 02:54:13;;;;;;;51.72;28.00;;;;;;;22.33;40.40;98956.56;5072375;28;20079;-64
2022/08/29 02:56:41;;;;;;;54.65;28.60;;;;;;;22.28;40.44;98940.00;5072256;28;20454;-63
2022/08/29 02:59:07;;;;;;;52.97;26.75;;;;;;;22.29;40.44;98933.91;5071926;28;20080;-64
2022/08/29 03:01:37;;;;;;;60.35;26.17;;;;;;;22.29;40.36;98939.59;5071848;28;20048;-67
2022/08/29 03:04:04;;;;;;;;;;;;;;;22.19;40.57;98943.38;5072589;28;20082;-67
2022/08/29 03:06:32;;;;;;;43.67;24.25;;;;;;;22.23;40.47;98929.94;5072127;28;19928;-67
2022/08/29 03:09:00;;;;;;;46.05;24.50;;;;;;;22.27;40.10;98929.91;5072357;28;20064;-67
2022/08/29 03:11:27;;;;;;;47.97;22.73;;;;;;;22.28;40.29;98932.31;5072209;28;20098;-67
2022/08/29 03:13:54;;;;;;;48.05;22.70;;;;;;;22.33;40.14;98943.19;5071941;28;20503;-68
2022/08/29 03:16:24;;;;;;;43.77;22.93;;;;;;;22.38;39.91;98941.91;5072835;28;20048;-67
2022/08/29 03:18:51;;;;;;;39.45;22.98;;;;;;;22.34;39.90;98927.78;5071888;28;20418;-68
2022/08/29 03:21:24;;;;;;;47.90;22.27;;;;;;;22.36;39.79;98933.84;5072047;28;20164;-68
2022/08/29 03:23:54;;;;;;;40.58;20.35;;;;;;;22.33;39.81;98923.34;5072051;28;20048;-68
2022/08/29 03:26:22;;;;;;;37.15;19.52;;;;;;;22.38;39.79;98928.53;5074288;28;20083;-67
2022/08/29 03:28:49;;;;;;;44.92;19.77;;;;;;;22.46;39.46;98929.22;5075607;28;20472;-67
2022/08/29 03:31:16;;;;;;;44.72;18.02;;;;;;;22.47;39.50;98925.19;5075539;28;20121;-67
2022/08/29 03:33:43;;;;;;;42.17;20.50;;;;;;;22.49;39.28;98932.03;5075923;28;20045;-67
2022/08/29 03:36:10;;;;;;;37.85;17.77;;;;;;;22.52;39.46;98942.53;5075079;28;20511;-68
2022/08/29 03:38:42;;;;;;;36.80;19.80;;;;;;;22.54;39.46;98950.63;5075481;28;20403;-68
2022/08/29 03:41:09;;;;;;;39.10;19.35;;;;;;;22.52;39.50;98924.72;5075925;28;20053;-67
2022/08/29 03:43:36;;;;;;;36.35;17.90;;;;;;;22.59;39.53;98907.63;5075127;28;20076;-73
2022/08/29 03:46:03;;;;;;;39.38;18.23;;;;;;;22.60;39.45;98927.03;5076048;28;20044;-73
2022/08/29 03:48:32;;;;;;;31.45;17.88;;;;;;;22.57;39.54;98925.06;5074905;28;20538;-73
2022/08/29 03:50:58;;;;;;;38.47;18.27;;;;;;;22.54;39.60;98920.25;5075102;28;20080;-73
2022/08/29 03:53:25;;;;;;;40.28;19.42;;;;;;;22.53;39.69;98927.13;5075357;28;20045;-72
2022/08/29 03:55:53;;;;;;;34.13;17.40;;;;;;;22.59;39.42;98928.25;5074865;28;20094;-74
2022/08/29 03:58:19;;;;;;;42.28;18.77;;;;;;;22.67;39.35;98909.09;5075090;28;20460;-72
2022/08/29 04:00:46;;;;;;;37.88;18.27;;;;;;;22.75;39.33;98902.09;5075084;28;20052;-72
2022/08/29 04:03:13;;;;;;;33.17;18.98;;;;;;;22.77;39.33;98891.91;5074861;28;20561;-73
2022/08/29 04:05:40;;;;;;;45.15;19.08;;;;;;;22.72;39.39;98892.41;5074991;28;20048;-73
2022/08/29 04:08:07;;;;;;;38.50;18.90;;;;;;;22.78;39.34;98887.88;5074825;28;20102;-72
2022/08/29 04:10:36;;;;;;;39.78;19.42;;;;;;;22.86;39.16;98886.50;5074841;28;20109;-72
2022/08/29 04:13:05;;;;;;;38.30;18.83;;;;;;;22.80;39.36;98874.03;5074708;28;20044;-72
2022/08/29 04:15:32;;;;;;;40.50;18.55;;;;;;;22.78;39.41;98878.53;5074889;28;20454;-73
2022/08/29 04:18:02;;;;;;;33.95;18.23;;;;;;;22.82;39.38;98871.59;5074768;28;20465;-73
2022/08/29 04:20:36;;;;;;;38.45;19.30;;;;;;;22.87;39.23;98871.09;5074392;28;20052;-64
2022/08/29 04:23:04;;;;;;;37.15;18.75;;;;;;;22.83;39.22;98855.38;5058628;28;20439;-65
2022/08/29 04:25:35;;;;;;;42.92;20.95;;;;;;;22.72;39.50;98844.22;5068231;28;20056;-65
2022/08/29 04:28:10;;;;;;;40.30;19.30;;;;;;;22.75;39.46;98840.50;5073968;28;20076;-64
2022/08/29 04:30:38;;;;;;;41.67;19.85;;;;;;;22.86;39.28;98843.94;5074070;28;20109;-65
2022/08/29 04:33:06;;;;;;;43.67;19.50;;;;;;;22.95;39.03;98841.34;5074214;28;20052;-65
2022/08/29 04:35:40;;;;;;;41.67;19.20;;;;;;;23.04;38.98;98833.09;5074068;28;20101;-64
2022/08/29 04:38:07;;;;;;;39.17;18.83;;;;;;;23.14;38.94;98834.94;5073880;28;20052;-65
2022/08/29 04:40:36;;;;;;;38.45;19.80;;;;;;;23.18;38.69;98838.50;5072903;28;20412;-65
2022/08/29 04:43:03;;;;;;;34.72;19.40;;;;;;;23.22;38.77;98839.25;5074418;28;20067;-65
2022/08/29 04:45:32;;;;;;;40.72;21.10;;;;;;;23.29;38.52;98836.31;5073927;28;20504;-64
2022/08/29 04:47:58;;;;;;;48.53;20.00;;;;;;;23.44;38.50;98836.03;5074130;28;20056;-64
2022/08/29 04:50:29;;;;;;;46.60;21.23;;;;;;;23.58;37.84;98827.22;5073764;28;20049;-65
2022/08/29 04:52:56;;;;;;;46.97;20.25;;;;;;;23.67;37.83;98819.72;5073740;28;20086;-65
2022/08/29 04:55:24;;;;;;;47.13;22.60;;;;;;;23.71;37.61;98825.34;5073573;28;20076;-65
2022/08/29 04:57:55;;;;;;;44.25;21.13;;;;;;;23.58;37.83;98847.09;5073771;28;20057;-65
2022/08/29 05:00:25;;;;;;;42.47;21.02;;;;;;;23.67;37.79;98835.97;5074137;28;20049;-65
2022/08/29 05:02:52;;;;;;;43.45;21.88;;;;;;;23.80;37.42;98831.25;5073605;28;20090;-65
2022/08/29 05:05:19;;;;;;;45.28;21.20;;;;;;;23.85;37.35;98827.88;5073294;28;20056;-65
2022/08/29 05:07:46;;;;;;;45.13;22.25;;;;;;;23.75;37.69;98840.25;5071832;28;20147;-65
2022/08/29 05:10:19;;;;;;;42.28;20.58;;;;;;;23.71;37.58;98850.91;5073648;28;20048;-65
2022/08/29 05:12:47;;;;;;;38.13;19.60;;;;;;;23.67;38.02;98865.16;5073422;28;20090;-64
2022/08/29 05:15:15;;;;;;;38.20;18.98;;;;;;;23.63;37.92;98853.09;5073513;28;20060;-65
2022/08/29 05:17:42;;;;;;;43.17;21.90;;;;;;;23.52;38.02;98858.19;5072897;28;20052;-64
2022/08/29 05:20:10;;;;;;;41.60;20.95;;;;;;;23.45;38.11;98858.31;5073364;28;20066;-64
2022/08/29 05:22:38;;;;;;;43.35;21.73;;;;;;;23.41;38.32;98851.13;5073503;28;20083;-64
2022/08/29 05:25:05;;;;;;;39.70;21.95;;;;;;;23.41;38.23;98840.53;5073332;28;20109;-64
2022/08/29 05:27:32;;;;;;;40.25;21.58;;;;;;;23.47;38.18;98838.00;5072940;28;20052;-65
2022/08/29 05:30:00;;;;;;;46.83;22.13;;;;;;;23.60;37.77;98819.06;5072643;28;20060;-64
2022/08/29 05:32:28;;;;;;;43.85;23.30;;;;;;;23.67;37.61;98831.09;5073113;28;20131;-64
2022/08/29 05:34:56;;;;;;;41.95;22.83;;;;;;;23.56;37.92;98827.66;5073003;28;20474;-65
2022/08/29 05:37:23;;;;;;;43.72;21.25;;;;;;;23.59;37.90;98823.16;5073036;28;20044;-65
2022/08/29 05:39:50;;;;;;;43.60;20.58;;;;;;;23.66;37.89;98817.31;5073252;28;20457;-64
2022/08/29 05:42:20;;;;;;;41.38;23.17;;;;;;;23.67;37.84;98821.75;5073368;28;20060;-66
2022/08/29 05:44:48;;;;;;;53.30;22.80;;;;;;;23.66;37.65;98846.53;5072783;28;20044;-66
2022/08/29 05:47:16;;;;;;;48.20;23.60;;;;;;;23.66;37.10;98831.53;5072362;28;20072;-63
2022/08/29 05:49:44;;;;;;;47.30;23.48;;;;;;;23.63;37.36;98818.19;5071513;28;20479;-66
2022/08/29 05:52:13;;;;;;;44.28;23.42;;;;;;;23.81;37.06;98830.81;5072500;28;20049;-64
2022/08/29 05:54:42;;;;;;;54.65;23.70;;;;;;;24.06;36.28;98830.28;5072280;28;20098;-65
2022/08/29 05:57:11;;;;;;;39.83;23.65;;;;;;;24.59;35.30;98815.63;5073136;28;20048;-65
2022/08/29 05:59:44;;;;;;;51.25;25.38;;;;;;;25.02;34.42;98824.72;5072358;28;20052;-65
2022/08/29 06:02:12;;;;;;;45.60;25.20;;;;;;;24.96;34.36;98820.81;5072273;28;20052;-66
2022/08/29 06:04:39;;;;;;;53.53;23.98;;;;;;;24.92;34.75;98814.38;5072235;28;20044;-65
2022/08/29 06:07:07;;;;;;;46.53;24.27;;;;;;;24.97;34.31;98822.41;5072401;28;20475;-65
2022/08/29 06:09:37;;;;;;;51.20;23.20;;;;;;;24.90;34.64;98836.81;5072110;28;20052;-66
2022/08/29 06:12:05;;;;;;;45.83;24.25;;;;;;;24.91;34.54;98824.19;5072796;28;20127;-64
2022/08/29 06:14:32;;;;;;;44.20;22.40;;;;;;;25.32;33.91;98826.34;5072190;28;20075;-64
2022/08/29 06:17:00;;;;;;;58.00;24.83;;;;;;;25.68;33.66;98829.81;5072223;28;20511;-66
2022/08/29 06:19:30;;;;;;;55.17;23.90;;;;;;;25.90;33.04;98825.09;5072677;28;20071;-66
2022/08/29 06:21:56;;;;;;;44.22;24.55;;;;;;;26.08;33.13;98820.47;5072133;28;20045;-67
2022/08/29 06:24:23;;;;;;;45.97;25.02;;;;;;;26.16;32.41;98823.91;5072243;28;20044;-66
2022/08/29 06:26:52;;;;;;;48.42;25.85;;;;;;;26.28;32.67;98820.25;5071984;28;20088;-66
2022/08/29 06:29:22;;;;;;;48.47;23.17;;;;;;;26.56;32.23;98803.03;5071735;28;20099;-65
2022/08/29 06:31:49;;;;;;;47.80;24.80;;;;;;;26.79;31.87;98799.84;5072080;28;20044;-66
2022/08/29 06:34:16;;;;;;;49.28;24.23;;;;;;;26.65;32.21;98803.16;5072174;28;20040;-65
2022/08/29 06:36:42;;;;;;;45.15;24.63;;;;;;;26.47;32.31;98811.47;5072409;28;20049;-66
2022/08/29 06:39:10;;;;;;;49.35;24.35;;;;;;;26.22;32.61;98822.09;5071960;28;20098;-66
2022/08/29 06:41:40;;;;;;;45.28;23.73;;;;;;;26.02;32.83;98819.44;5072633;28;20499;-66
2022/08/29 06:44:08;;;;;;;50.85;24.23;;;;;;;25.83;33.16;98825.28;5072216;28;20044;-65
2022/08/29 06:46:41;;;;;;;50.55;25.95;;;;;;;25.85;33.27;98826.47;5070473;28;20053;-69
2022/08/29 06:49:11;;;;;;;55.80;24.95;;;;;;;25.98;33.16;98812.22;5072472;28;20109;-69
2022/08/29 06:51:40;;;;;;;51.20;26.20;;;;;;;26.04;32.65;98819.78;5071854;28;20083;-69
2022/08/29 06:54:10;;;;;;;52.80;24.70;;;;;;;25.88;33.22;98819.03;5071724;28;20059;-69
2022/08/29 06:56:38;;;;;;;47.38;27.15;;;;;;;25.91;33.00;98812.44;5072885;28;20052;-69
2022/08/29 06:59:08;;;;;;;60.70;24.67;;;;;;;26.23;32.85;98818.00;5071654;28;20144;-68
2022/08/29 07:01:35;;;;;;;55.47;26.25;;;;;;;26.61;31.82;98805.31;5073129;28;20044;-65
2022/08/29 07:04:02;;;;;;;56.08;26.58;;;;;;;26.88;31.75;98806.91;5075924;28;20439;-66
2022/08/29 07:06:31;;;;;;;50.72;27.02;;;;;;;27.01;31.42;98804.81;5075729;28;20114;-66
2022/08/29 07:08:58;;;;;;;51.67;26.52;;;;;;;26.77;31.49;98816.63;5075603;28;20052;-66
2022/08/29 07:11:31;;;;;;;48.42;25.40;;;;;;;26.60;31.79;98809.44;5076541;28;20553;-65
2022/08/29 07:14:05;;;;;;;51.70;28.42;;;;;;;26.98;31.41;98811.47;5075546;28;20094;-65
2022/08/29 07:16:34;;;;;;;65.10;27.80;;;;;;;27.48;30.78;98808.47;5075716;28;20102;-65
2022/08/29 07:19:04;;;;;;;57.75;26.02;;;;;;;27.75;30.41;98802.97;5075487;28;20056;-66
2022/08/29 07:21:31;;;;;;;51.78;25.80;;;;;;;27.79;30.38;98806.47;5075919;28;20434;-65
2022/08/29 07:23:58;;;;;;;45.20;25.88;;;;;;;28.26;29.37;98807.91;5075360;28;20041;-64
2022/08/29 07:26:40;;;;;;;52.58;26.75;;;;;;;28.64;28.90;98795.38;5075457;28;20045;-67
2022/08/29 07:29:16;;;;;;;40.72;23.63;;;;;;;28.63;28.93;98802.38;5075162;28;20056;-68
2022/08/29 07:31:44;;;;;;;47.40;25.08;;;;;;;28.32;29.09;98785.19;5075046;28;20075;-68
2022/08/29 07:34:11;;;;;;;52.97;22.88;;;;;;;28.38;28.75;98801.28;5075144;28;20044;-68
2022/08/29 07:36:38;;;;;;;36.63;22.73;;;;;;;28.24;28.39;98801.84;5075554;28;20557;-70
2022/08/29 07:39:12;;;;;;;47.42;24.02;;;;;;;28.33;28.25;98806.84;5075322;28;20048;-70
2022/08/29 07:41:41;;;;;;;45.13;22.98;;;;;;;28.77;28.24;98810.38;5075587;28;20475;-71
2022/08/29 07:44:08;;;;;;;49.50;24.35;;;;;;;29.64;26.99;98797.97;5061530;28;20496;-70
2022/08/29 07:46:35;;;;;;;51.25;23.45;;;;;;;30.97;25.16;98810.00;5069046;28;20102;-69
2022/08/29 07:49:03;;;;;;;52.53;24.92;;;;;;;32.95;22.43;98802.34;5074485;28;20044;-68
2022/08/29 07:51:30;;;;;;;42.65;22.85;;;;;;;32.99;22.37;98799.25;5073206;28;20057;-68
2022/08/29 07:53:57;;;;;;;41.05;21.08;;;;;;;32.79;22.17;98811.50;5074659;28;20494;-69
2022/08/29 07:56:30;;;;;;;42.65;20.65;;;;;;;32.41;23.04;98797.28;5074804;28;20499;-69
2022/08/29 07:59:03;;;;;;;;;;;;;;;32.41;23.21;98797.28;5074752;28;20048;-69
2022/08/29 08:01:30;;;;;;;42.97;21.42;;;;;;;31.69;24.00;98801.66;5073293;28;19925;-69
2022/08/29 08:03:57;;;;;;;33.65;19.15;;;;;;;31.67;23.86;98806.31;5074623;28;20495;-68
2022/08/29 08:06:25;;;;;;;46.35;23.55;;;;;;;31.60;23.74;98809.56;5074715;28;20048;-70
2022/08/29 08:08:53;;;;;;;;;;;;;;;32.64;22.97;98807.06;5075212;28;20094;-70
2022/08/29 08:11:24;;;;;;;44.38;17.98;;;;;;;34.19;21.10;98807.84;5074506;28;20387;-70
2022/08/29 08:13:52;;;;;;;37.88;14.40;;;;;;;36.16;18.55;98803.81;5073918;28;20093;-70
2022/08/29 08:16:22;;;;;;;33.60;15.77;;;;;;;37.11;17.33;98798.81;5073483;28;20118;-70
2022/08/29 08:18:49;;;;;;;27.83;11.68;;;;;;;38.45;16.07;98794.78;5074548;28;20404;-69
2022/08/29 08:21:16;;;;;;;29.42;11.30;;;;;;;39.53;15.22;98797.19;5073221;28;20098;-70
2022/08/29 08:23:43;;;;;;;27.27;10.18;;;;;;;40.51;14.16;98804.28;5070465;28;20147;-69
2022/08/29 08:26:12;;;;;;;32.35;10.73;;;;;;;40.60;14.32;98800.94;5073341;28;20052;-69
2022/08/29 08:28:40;;;;;;;30.02;9.02;;;;;;;40.64;14.16;98795.59;5074176;28;20090;-70
2022/08/29 08:31:09;;;;;;;24.45;8.27;;;;;;;40.69;14.26;98803.47;5072617;28;20106;-69
2022/08/29 08:33:40;;;;;;;24.35;7.65;;;;;;;41.50;13.38;98802.53;5074133;28;20195;-69
2022/08/29 08:36:20;;;;;;;27.80;6.63;;;;;;;42.81;12.59;98800.88;5074125;28;20048;-68
2022/08/29 08:38:49;;;;;;;26.63;5.95;;;;;;;43.98;11.46;98795.47;5074046;28;20059;-69
2022/08/29 08:41:34;;;;;;;12.77;5.63;;;;;;;45.32;10.83;98808.06;5074007;28;20071;-68
2022/08/29 08:44:06;;;;;;;20.25;5.65;;;;;;;45.61;10.44;98795.47;5073707;28;20086;-69
2022/08/29 08:46:47;;;;;;;24.52;5.30;;;;;;;43.96;11.78;98801.91;5073884;28;20036;-72
2022/08/29 08:49:33;;;;;;;14.40;5.82;;;;;;;42.21;12.85;98803.09;5073505;28;20048;-73
2022/08/29 08:52:05;;;;;;;17.88;4.82;;;;;;;41.94;13.08;98818.38;5073823;28;20048;-72
2022/08/29 08:54:43;;;;;;;18.55;4.55;;;;;;;40.29;14.33;98804.66;5073671;28;20052;-74
2022/08/29 08:57:11;;;;;;;32.75;5.18;;;;;;;42.17;12.91;98813.56;5073881;28;20555;-73
2022/08/29 08:59:54;;;;;;;35.80;4.97;;;;;;;43.16;12.49;98797.25;5073622;28;20492;-73
2022/08/29 09:02:35;;;;;;;16.48;4.07;;;;;;;44.36;11.42;98805.97;5073659;28;20048;-74
2022/08/29 09:05:24;;;;;;;24.08;4.07;;;;;;;44.95;11.34;98821.34;5072629;28;20087;-73
2022/08/29 09:08:09;;;;;;;44.28;4.85;;;;;;;44.66;11.43;98793.53;5073229;28;20083;-74
2022/08/29 09:11:02;;;;;;;35.80;5.80;;;;;;;43.37;11.93;98814.00;5074151;28;20555;-74
2022/08/29 09:13:36;;;;;;;25.65;3.53;;;;;;;41.62;13.63;98798.03;5073553;28;20098;-74
2022/08/29 09:16:13;;;;;;;23.02;4.32;;;;;;;39.81;14.76;98812.16;5073532;28;20415;-69
2022/08/29 09:18:44;;;;;;;17.67;3.58;;;;;;;37.74;16.88;98826.63;5073439;28;20063;-68
2022/08/29 09:21:22;;;;;;;29.17;4.32;;;;;;;35.62;18.79;98830.47;5073170;28;20174;-69
2022/08/29 09:24:17;;;;;;;19.92;4.15;;;;;;;33.99;20.59;98833.09;5072616;28;20052;-69
2022/08/29 09:26:44;;;;;;;16.38;4.63;;;;;;;32.92;21.77;98825.63;5073289;28;20088;-69
2022/08/29 09:29:12;;;;;;;10.85;3.58;;;;;;;32.08;23.02;98831.19;5072856;28;20416;-69
2022/08/29 09:31:40;;;;;;;17.85;3.78;;;;;;;31.30;23.69;98831.69;5073658;28;20045;-69
2022/08/29 09:34:11;;;;;;;19.67;3.90;;;;;;;30.92;24.32;98860.31;5072489;28;20048;-70
2022/08/29 09:36:38;;;;;;;14.73;3.92;;;;;;;30.94;24.32;98845.47;5073134;28;20052;-68
2022/08/29 09:39:19;;;;;;;14.20;3.35;;;;;;;31.78;23.71;98843.94;5072904;28;20052;-68
2022/08/29 09:41:58;;;;;;;22.55;4.10;;;;;;;31.96;23.23;98843.78;5072977;28;20063;-69
2022/08/29 09:44:34;;;;;;;11.10;4.40;;;;;;;31.63;23.79;98832.41;5073270;28;20049;-69
2022/08/29 09:47:07;;;;;;;14.05;3.20;;;;;;;31.57;24.39;98824.94;5072764;28;20055;-68
2022/08/29 09:49:37;;;;;;;15.55;3.67;;;;;;;31.32;24.49;98826.22;5072726;28;20109;-70
2022/08/29 09:52:22;;;;;;;17.65;3.55;;;;;;;30.83;25.17;98817.28;5073093;28;20071;-70
2022/08/29 09:54:49;;;;;;;34.55;3.92;;;;;;;30.42;25.96;98817.25;5072662;28;20044;-69
2022/08/29 09:57:25;;;;;;;27.38;7.18;;;;;;;30.26;26.70;98815.56;5072980;28;20048;-69
2022/08/29 10:00:14;;;;;;;14.82;3.67;;;;;;;29.90;26.45;98810.66;5073047;28;20060;-68
2022/08/29 10:02:45;;;;;;;20.85;4.40;;;;;;;29.59;27.23;98827.22;5073149;28;20056;-68
2022/08/29 10:05:43;;;;;;;15.55;3.88;;;;;;;29.42;27.58;98811.63;5072820;28;20101;-68
2022/08/29 10:08:33;;;;;;;15.63;3.75;;;;;;;29.36;27.26;98833.59;5072564;28;20522;-68
2022/08/29 10:11:24;;;;;;;30.98;5.90;;;;;;;29.14;27.60;98812.06;5072701;28;20071;-68
2022/08/29 10:13:57;;;;;;;13.15;5.10;;;;;;;29.10;27.91;98806.47;5072588;28;20134;-69
2022/08/29 10:16:27;;;;;;;13.02;3.85;;;;;;;29.01;28.03;98820.75;5072496;28;20084;-70
2022/08/29 10:19:00;;;;;;;13.38;3.92;;;;;;;28.87;28.37;98803.41;5072540;28;20051;-69
2022/08/29 10:21:52;;;;;;;34.97;4.47;;;;;;;28.69;28.39;98829.91;5072236;28;20044;-68
2022/08/29 10:24:29;;;;;;;19.55;4.22;;;;;;;28.33;29.19;98836.22;5087679;28;20044;-68
2022/08/29 10:27:18;;;;;;;22.48;4.57;;;;;;;28.12;29.48;98850.56;5072599;28;20155;-69
2022/08/29 10:30:18;;;;;;;35.97;4.97;;;;;;;27.82;30.01;98816.97;5072246;28;20609;-68
2022/08/29 10:33:00;;;;;;;19.42;4.32;;;;;;;27.81;30.13;98827.63;5068840;28;20056;-68
2022/08/29 10:35:34;;;;;;;25.75;5.78;;;;;;;27.88;30.34;98826.56;5073348;28;20495;-70
2022/08/29 10:38:07;;;;;;;20.25;4.18;;;;;;;27.95;30.63;98863.50;5076605;28;20056;-68
2022/08/29 10:40:47;;;;;;;17.85;4.43;;;;;;;27.92;31.27;98864.44;5076548;28;20547;-68
2022/08/29 10:43:37;;;;;;;24.60;4.53;;;;;;;27.77;31.24;98837.59;5076054;28;20056;-69
2022/08/29 10:46:10;;;;;;;27.05;4.10;;;;;;;27.84;31.36;98875.31;5076244;28;20055;-70
2022/08/29 10:49:06;;;;;;;27.58;4.47;;;;;;;27.83;31.36;98838.59;5076440;28;20118;-69
2022/08/29 10:52:05;;;;;;;20.17;4.05;;;;;;;27.58;31.93;98828.06;5075920;28;20415;-68
2022/08/29 10:54:50;;;;;;;11.93;3.70;;;;;;;27.54;32.01;98838.03;5045155;28;20060;-67
2022/08/29 10:57:28;;;;;;;15.45;4.03;;;;;;;27.59;32.28;98846.81;5076598;28;20135;-68
2022/08/29 11:00:03;;;;;;;24.65;4.90;;;;;;;27.93;31.76;98854.56;5076269;28;20403;-68
2022/08/29 11:02:42;;;;;;;11.35;3.85;;;;;;;28.10;31.62;98825.28;5075895;28;20102;-69
2022/08/29 11:05:18;;;;;;;25.35;4.35;;;;;;;28.27;31.73;98840.19;5076615;28;20079;-69
2022/08/29 11:07:55;;;;;;;17.33;4.60;;;;;;;28.14;31.84;98842.31;5075866;28;20083;-69
2022/08/29 11:10:27;;;;;;;15.93;3.28;;;;;;;28.09;32.19;98851.50;5075845;28;20079;-69
2022/08/29 11:13:05;;;;;;;14.63;4.60;;;;;;;28.21;31.99;98847.75;5075669;28;20452;-68
2022/08/29 11:15:43;;;;;;;27.02;4.25;;;;;;;28.14;32.25;98865.19;5075485;28;20089;-67
2022/08/29 11:18:25;;;;;;;24.35;4.03;;;;;;;28.07;32.95;98868.34;5075615;28;20441;-68
2022/08/29 11:20:59;;;;;;;24.90;4.00;;;;;;;27.92;33.49;98870.16;5075327;28;20052;-69
2022/08/29 11:23:46;;;;;;;19.45;4.72;;;;;;;27.78;33.64;98864.91;5075472;28;20450;-68
2022/08/29 11:26:21;;;;;;;21.40;4.30;;;;;;;27.63;33.66;98876.09;5075719;28;20055;-68
2022/08/29 11:29:15;;;;;;;22.08;4.45;;;;;;;27.63;33.65;98875.28;5075406;28;20044;-68
2022/08/29 11:32:20;;;;;;;16.60;3.80;;;;;;;27.57;33.49;98917.13;5075496;28;20499;-68
2022/08/29 11:35:08;;;;;;;23.52;4.20;;;;;;;27.31;33.94;98876.41;5072225;28;20060;-69
2022/08/29 11:38:09;;;;;;;18.20;4.50;;;;;;;27.38;33.70;98889.66;5075114;28;20187;-69
2022/08/29 11:40:44;;;;;;;22.23;3.85;;;;;;;27.36;33.99;98887.25;5075296;28;20139;-67
2022/08/29 11:43:41;;;;;;;11.73;3.65;;;;;;;27.16;34.15;98874.47;5074841;28;20059;-68
2022/08/29 11:46:12;;;;;;;13.30;4.15;;;;;;;26.99;34.62;98895.88;5074860;28;20058;-69